createdAt,value
2023-02-21T00:02:44.621Z,73.88
2023-02-21T00:05:54.854Z,74.39
2023-02-21T00:09:05.290Z,75.04
2023-02-21T00:12:08.372Z,76.36
2023-02-21T00:15:18.249Z,77.41
2023-02-21T00:18:28.532Z,78.76
2023-02-21T00:21:38.860Z,80.48
2023-02-21T00:24:49.053Z,81.36
2023-02-21T00:27:58.114Z,82.36
2023-02-21T00:31:10.089Z,83.29
2023-02-21T00:34:20.665Z,84.07
2023-02-21T00:37:30.872Z,84.45
2023-02-21T00:40:41.150Z,84.41
2023-02-21T00:43:50.956Z,84.63
2023-02-21T00:47:01.086Z,84.52
2023-02-21T00:50:11.292Z,84.08
2023-02-21T00:53:22.108Z,83.71
2023-02-21T00:56:32.140Z,82.93
2023-02-21T00:59:42.134Z,82.36
2023-02-21T01:02:52.561Z,81.42
2023-02-21T01:06:02.970Z,80.91
2023-02-21T01:09:13.067Z,80.22
2023-02-21T01:12:23.338Z,79.73
2023-02-21T01:15:34.068Z,79.23
2023-02-21T01:18:44.435Z,78.81
2023-02-21T01:21:55.058Z,78.51
2023-02-21T01:25:07.253Z,78.17
2023-02-21T01:28:18.091Z,77.92
2023-02-21T01:31:28.690Z,77.63
2023-02-21T01:34:39.309Z,77.50
2023-02-21T01:37:49.827Z,77.06
2023-02-21T01:41:01.161Z,76.84
2023-02-21T01:44:24.159Z,76.43
2023-02-21T01:47:35.248Z,76.33
2023-02-21T01:50:50.027Z,76.34
2023-02-21T01:53:53.846Z,76.71
2023-02-21T01:56:58.473Z,77.07
2023-02-21T02:00:10.605Z,77.64
2023-02-21T02:03:29.294Z,77.99
2023-02-21T02:06:39.797Z,78.00
2023-02-21T02:09:51.402Z,78.09
2023-02-21T02:13:19.095Z,78.05
2023-02-21T02:16:22.601Z,77.78
2023-02-21T02:20:02.053Z,77.70
2023-02-21T02:23:16.520Z,77.21
2023-02-21T02:26:31.428Z,76.41
2023-02-21T02:29:41.392Z,76.07
2023-02-21T02:32:59.590Z,75.94
2023-02-21T02:35:56.760Z,75.92
2023-02-21T02:38:59.967Z,75.54
2023-02-21T02:42:04.183Z,75.40
2023-02-21T02:44:55.602Z,75.33
2023-02-21T02:47:55.660Z,75.32
2023-02-21T02:50:43.014Z,75.29
2023-02-21T02:53:38.026Z,75.37
2023-02-21T02:56:31.013Z,75.49
2023-02-21T02:59:29.306Z,75.38
2023-02-21T03:02:52.804Z,75.42
2023-02-21T03:06:02.246Z,75.45
2023-02-21T03:09:04.106Z,75.68
2023-02-21T03:12:07.049Z,75.88
2023-02-21T03:15:06.376Z,76.14
2023-02-21T03:18:07.189Z,76.20
2023-02-21T03:21:03.040Z,76.03
2023-02-21T03:23:57.596Z,76.17
2023-02-21T03:26:54.473Z,76.38
2023-02-21T03:29:58.653Z,76.49
2023-02-21T03:32:53.955Z,76.58
2023-02-21T03:35:46.872Z,76.46
2023-02-21T03:38:40.266Z,76.39
2023-02-21T03:41:33.243Z,76.49
2023-02-21T03:44:26.522Z,76.51
2023-02-21T03:47:18.140Z,76.80
2023-02-21T03:50:11.563Z,77.11
2023-02-21T03:53:04.841Z,77.34
2023-02-21T03:55:57.717Z,77.33
2023-02-21T03:58:50.613Z,77.31
2023-02-21T04:01:43.692Z,77.40
2023-02-21T04:04:36.763Z,77.59
2023-02-21T04:07:32.711Z,77.76
2023-02-21T04:10:25.494Z,78.09
2023-02-21T04:13:19.731Z,78.06
2023-02-21T04:16:12.835Z,78.07
2023-02-21T04:19:05.944Z,78.05
2023-02-21T04:21:58.945Z,78.03
2023-02-21T04:24:51.990Z,78.02
2023-02-21T04:27:45.109Z,78.26
2023-02-21T04:30:31.603Z,78.60
2023-02-21T04:33:24.911Z,78.72
2023-02-21T04:36:18.365Z,78.73
2023-02-21T04:39:12.148Z,78.61
2023-02-21T04:42:05.316Z,78.26
2023-02-21T04:45:00.865Z,77.98
2023-02-21T04:47:53.920Z,78.17
2023-02-21T04:50:45.712Z,78.22
2023-02-21T04:53:32.619Z,78.18
2023-02-21T04:56:29.356Z,78.10
2023-02-21T04:59:22.503Z,78.19
2023-02-21T05:02:17.214Z,78.39
2023-02-21T05:05:11.361Z,78.47
2023-02-21T05:08:05.580Z,78.43
2023-02-21T05:10:58.719Z,77.99
2023-02-21T05:13:53.892Z,78.24
2023-02-21T05:16:46.876Z,78.67
2023-02-21T05:19:42.285Z,79.11
2023-02-21T05:22:34.476Z,79.44
2023-02-21T05:25:27.674Z,79.88
2023-02-21T05:28:20.568Z,80.14
2023-02-21T05:31:15.732Z,80.46
2023-02-21T05:34:08.915Z,80.71
2023-02-21T05:37:02.364Z,80.67
2023-02-21T05:39:55.172Z,80.84
2023-02-21T05:42:50.472Z,80.99
2023-02-21T05:45:43.376Z,80.99
2023-02-21T05:48:38.251Z,80.75
2023-02-21T05:51:36.183Z,80.80
2023-02-21T05:54:29.228Z,80.71
2023-02-21T05:57:22.255Z,80.78
2023-02-21T06:00:20.550Z,81.65
2023-02-21T06:03:13.734Z,82.70
2023-02-21T06:06:01.936Z,83.62
2023-02-21T06:08:55.195Z,84.18
2023-02-21T06:11:50.798Z,84.35
2023-02-21T06:14:43.912Z,84.97
2023-02-21T06:17:39.292Z,85.40
2023-02-21T06:20:32.269Z,85.49
2023-02-21T06:23:26.961Z,85.50
2023-02-21T06:26:21.713Z,85.39
2023-02-21T06:29:15.145Z,85.85
2023-02-21T06:32:08.955Z,86.32
2023-02-21T06:34:55.770Z,87.38
2023-02-21T06:37:49.166Z,88.02
2023-02-21T06:40:42.568Z,88.66
2023-02-21T06:43:36.500Z,88.88
2023-02-21T06:46:23.688Z,89.08
2023-02-21T06:49:16.638Z,88.70
2023-02-21T06:52:10.245Z,89.09
2023-02-21T06:55:03.146Z,89.31
2023-02-21T06:57:56.096Z,89.82
2023-02-21T07:00:47.952Z,90.02
2023-02-21T07:03:44.469Z,90.38
2023-02-21T07:06:37.559Z,89.99
2023-02-21T07:09:30.532Z,90.10
2023-02-21T07:12:23.609Z,89.91
2023-02-21T07:15:17.031Z,89.33
2023-02-21T07:18:10.330Z,88.73
2023-02-21T07:21:03.386Z,88.20
2023-02-21T07:23:50.325Z,88.13
2023-02-21T07:26:43.342Z,87.77
2023-02-21T07:29:38.022Z,87.55
2023-02-21T07:32:30.918Z,87.57
2023-02-21T07:35:26.408Z,86.99
2023-02-21T07:38:25.524Z,86.88
2023-02-21T07:41:20.177Z,85.75
2023-02-21T07:44:13.507Z,84.92
2023-02-21T07:47:06.719Z,84.69
2023-02-21T07:49:59.785Z,84.50
2023-02-21T07:52:53.335Z,86.37
2023-02-21T07:55:34.973Z,87.88
2023-02-21T07:58:22.037Z,88.32
2023-02-21T08:01:08.388Z,88.65
2023-02-21T08:04:02.538Z,89.35
2023-02-21T08:07:02.321Z,89.64
2023-02-21T08:09:55.453Z,90.22
2023-02-21T08:12:48.834Z,90.56
2023-02-21T08:15:41.777Z,89.87
2023-02-21T08:18:35.692Z,89.27
2023-02-21T08:21:28.513Z,87.89
2023-02-21T08:24:22.148Z,87.47
2023-02-21T08:27:14.970Z,86.12
2023-02-21T08:30:01.429Z,84.90
2023-02-21T08:32:54.785Z,84.35
2023-02-21T08:35:32.428Z,83.02
2023-02-21T08:38:25.578Z,81.89
2023-02-21T08:41:18.108Z,80.94
2023-02-21T08:44:11.839Z,80.19
2023-02-21T08:47:04.629Z,79.71
2023-02-21T08:49:57.494Z,79.87
2023-02-21T08:52:37.751Z,79.80
2023-02-21T08:56:51.201Z,78.89
2023-02-21T08:58:45.833Z,78.69
2023-02-21T09:01:39.473Z,78.41
2023-02-21T09:04:32.248Z,77.57
2023-02-21T09:07:25.604Z,77.31
2023-02-21T09:10:13.529Z,76.86
2023-02-21T09:13:06.957Z,77.17
2023-02-21T09:15:52.382Z,77.43
2023-02-21T09:18:45.594Z,76.05
2023-02-21T09:22:01.750Z,75.64
2023-02-21T09:24:54.872Z,75.47
2023-02-21T09:27:40.931Z,74.81
2023-02-21T09:30:33.902Z,74.88
2023-02-21T09:33:25.409Z,74.25
2023-02-21T09:36:23.668Z,74.44
2023-02-21T09:39:16.702Z,74.71
2023-02-21T09:42:02.152Z,74.02
2023-02-21T09:44:55.091Z,73.66
2023-02-21T09:47:50.906Z,73.50
2023-02-21T09:50:49.170Z,74.33
2023-02-21T09:53:44.449Z,75.64
2023-02-21T09:56:41.906Z,76.69
2023-02-21T09:59:34.871Z,77.77
2023-02-21T10:02:41.975Z,78.33
2023-02-21T10:05:45.098Z,79.35
2023-02-21T10:08:38.454Z,80.14
2023-02-21T10:11:42.767Z,79.72
2023-02-21T10:14:41.802Z,79.50
2023-02-21T10:17:40.433Z,79.16
2023-02-21T10:20:38.527Z,79.00
2023-02-21T10:23:33.805Z,78.44
2023-02-21T10:26:30.496Z,75.96
2023-02-21T10:29:27.589Z,74.61
2023-02-21T10:32:13.304Z,74.12
2023-02-21T10:35:09.033Z,73.00
2023-02-21T10:38:03.829Z,72.47
2023-02-21T10:40:59.286Z,71.90
2023-02-21T10:43:56.454Z,71.33
2023-02-21T10:46:53.562Z,69.83
2023-02-21T10:49:51.360Z,69.85
2023-02-21T10:52:51.735Z,68.52
2023-02-21T10:55:44.709Z,67.44
2023-02-21T10:58:38.652Z,68.76
2023-02-21T11:01:33.318Z,67.58
2023-02-21T11:04:34.700Z,67.60
2023-02-21T11:07:28.482Z,66.31
2023-02-21T11:10:33.835Z,64.84
2023-02-21T11:13:27.948Z,62.94
2023-02-21T11:16:16.999Z,61.24
2023-02-21T11:19:14.059Z,60.21
2023-02-21T11:22:09.236Z,57.45
2023-02-21T11:25:07.222Z,55.52
2023-02-21T11:28:07.317Z,55.02
2023-02-21T11:31:16.710Z,54.84
2023-02-21T11:34:11.096Z,54.92
2023-02-21T11:37:06.811Z,55.13
2023-02-21T11:40:01.890Z,55.81
2023-02-21T11:43:11.034Z,55.45
2023-02-21T11:46:16.429Z,55.93
2023-02-21T11:49:07.994Z,55.48
2023-02-21T11:52:03.799Z,54.60
2023-02-21T11:54:58.188Z,53.77
2023-02-21T11:57:53.846Z,53.67
2023-02-21T12:01:02.241Z,54.08
2023-02-21T12:04:09.901Z,52.78
2023-02-21T12:07:11.833Z,53.76
2023-02-21T12:10:13.681Z,54.84
2023-02-21T12:13:19.412Z,54.86
2023-02-21T12:16:22.318Z,55.84
2023-02-21T12:19:26.532Z,55.60
2023-02-21T12:22:31.580Z,55.93
2023-02-21T12:25:29.259Z,55.85
2023-02-21T12:28:27.016Z,55.45
2023-02-21T12:31:25.640Z,54.93
2023-02-21T12:34:32.998Z,55.62
2023-02-21T12:37:31.790Z,54.67
2023-02-21T12:40:28.833Z,54.95
2023-02-21T12:43:32.890Z,55.36
2023-02-21T12:46:32.623Z,54.26
2023-02-21T12:49:29.809Z,52.39
2023-02-21T12:52:27.295Z,50.94
2023-02-21T12:55:21.715Z,50.32
2023-02-21T12:58:19.082Z,49.51
2023-02-21T13:01:21.098Z,48.60
2023-02-21T13:04:25.635Z,48.22
2023-02-21T13:07:26.610Z,48.57
2023-02-21T13:10:31.592Z,48.41
2023-02-21T13:13:32.179Z,48.42
2023-02-21T13:16:26.435Z,49.01
2023-02-21T13:19:20.939Z,49.99
2023-02-21T13:22:20.538Z,49.78
2023-02-21T13:25:23.316Z,49.40
2023-02-21T13:28:19.782Z,49.76
2023-02-21T13:31:11.350Z,50.07
2023-02-21T13:34:07.194Z,50.70
2023-02-21T13:37:06.381Z,50.73
2023-02-21T13:40:07.645Z,50.51
2023-02-21T13:43:04.378Z,49.69
2023-02-21T13:45:52.893Z,49.82
2023-02-21T13:48:35.476Z,49.92
2023-02-21T13:51:50.041Z,49.73
2023-02-21T13:55:32.440Z,50.64
2023-02-21T13:58:45.674Z,51.00
2023-02-21T14:01:45.694Z,49.86
2023-02-21T14:05:03.948Z,50.64
2023-02-21T14:08:08.268Z,51.09
2023-02-21T14:11:13.070Z,51.07
2023-02-21T14:14:19.877Z,51.15
2023-02-21T14:17:07.816Z,51.67
2023-02-21T14:20:06.010Z,52.86
2023-02-21T14:23:01.064Z,53.05
2023-02-21T14:26:02.545Z,52.75
2023-02-21T14:29:14.133Z,52.94
2023-02-21T14:32:29.375Z,53.33
2023-02-21T14:35:34.638Z,53.73
2023-02-21T14:38:25.475Z,54.37
2023-02-21T14:41:27.599Z,54.91
2023-02-21T14:44:28.748Z,55.43
2023-02-21T14:47:41.700Z,55.60
2023-02-21T14:50:45.104Z,55.90
2023-02-21T14:53:59.869Z,55.90
2023-02-21T14:57:00.277Z,56.12
2023-02-21T15:00:12.251Z,56.55
2023-02-21T15:02:54.513Z,56.55
2023-02-21T15:06:11.470Z,56.93
2023-02-21T15:08:55.055Z,56.98
2023-02-21T15:11:51.301Z,56.16
2023-02-21T15:14:48.858Z,55.86
2023-02-21T15:17:32.850Z,56.18
2023-02-21T15:20:20.314Z,56.25
2023-02-21T15:23:03.711Z,56.01
2023-02-21T15:25:54.771Z,56.61
2023-02-21T15:28:40.931Z,56.96
2023-02-21T15:31:40.928Z,56.22
2023-02-21T15:34:39.220Z,56.45
2023-02-21T15:37:35.868Z,56.83
2023-02-21T15:40:24.954Z,57.37
2023-02-21T15:43:30.135Z,57.85
2023-02-21T15:46:17.878Z,58.09
2023-02-21T15:49:16.841Z,58.48
2023-02-21T15:52:04.044Z,58.76
2023-02-21T15:54:45.849Z,59.19
2023-02-21T15:57:31.177Z,59.55
2023-02-21T16:00:27.951Z,60.03
2023-02-21T16:03:37.770Z,60.62
2023-02-21T16:06:32.655Z,60.64
2023-02-21T16:09:31.312Z,60.66
2023-02-21T16:12:32.020Z,60.91
2023-02-21T16:15:30.105Z,60.81
2023-02-21T16:18:23.232Z,60.82
2023-02-21T16:21:07.172Z,60.87
2023-02-21T16:24:15.178Z,60.33
2023-02-21T16:27:07.187Z,60.57
2023-02-21T16:29:59.992Z,60.43
2023-02-21T16:32:54.593Z,60.51
2023-02-21T16:35:47.712Z,60.56
2023-02-21T16:38:40.647Z,60.49
2023-02-21T16:41:33.427Z,60.15
2023-02-21T16:44:19.281Z,60.02
2023-02-21T16:47:17.124Z,59.67
2023-02-21T16:50:22.349Z,59.52
2023-02-21T16:53:16.033Z,58.79
2023-02-21T16:56:03.846Z,58.83
2023-02-21T16:58:56.865Z,58.57
2023-02-21T17:01:49.836Z,58.10
2023-02-21T17:04:43.290Z,58.11
2023-02-21T17:07:36.425Z,58.01
2023-02-21T17:10:29.586Z,58.17
2023-02-21T17:13:22.438Z,58.04
2023-02-21T17:16:15.413Z,57.76
2023-02-21T17:18:51.986Z,57.70
2023-02-21T17:21:47.561Z,57.32
2023-02-21T17:24:33.291Z,57.20
2023-02-21T17:27:07.668Z,57.21
2023-02-21T17:29:51.727Z,57.11
2023-02-21T17:32:39.548Z,57.41
2023-02-21T17:35:32.475Z,57.38
2023-02-21T17:38:25.513Z,57.39
2023-02-21T17:41:19.513Z,57.48
2023-02-21T17:44:12.297Z,57.02
2023-02-21T17:47:07.459Z,56.34
2023-02-21T17:50:02.898Z,56.48
2023-02-21T17:52:57.152Z,56.95
2023-02-21T17:55:49.988Z,57.04
2023-02-21T17:58:42.756Z,57.02
2023-02-21T18:01:35.981Z,57.04
2023-02-21T18:04:21.401Z,56.93
2023-02-21T18:07:14.491Z,57.64
2023-02-21T18:10:08.908Z,57.50
2023-02-21T18:13:01.919Z,57.18
2023-02-21T18:15:54.852Z,56.91
2023-02-21T18:18:47.902Z,56.85
2023-02-21T18:21:41.552Z,57.17
2023-02-21T18:24:34.567Z,57.37
2023-02-21T18:27:28.312Z,57.07
2023-02-21T18:30:22.806Z,56.41
2023-02-21T18:33:16.034Z,55.85
2023-02-21T18:36:10.710Z,56.02
2023-02-21T18:38:53.451Z,56.43
2023-02-21T18:41:38.105Z,57.06
2023-02-21T18:44:35.470Z,57.14
2023-02-21T18:47:19.525Z,57.19
2023-02-21T18:50:14.660Z,57.05
2023-02-21T18:52:50.745Z,57.18
2023-02-21T18:55:43.854Z,57.33
2023-02-21T18:58:29.756Z,57.24
2023-02-21T19:01:26.231Z,56.97
2023-02-21T19:04:19.162Z,57.08
2023-02-21T19:06:56.963Z,57.19
2023-02-21T19:09:51.381Z,57.66
2023-02-21T19:12:34.095Z,57.86
2023-02-21T19:15:27.349Z,57.89
2023-02-21T19:18:21.435Z,57.86
2023-02-21T19:21:15.007Z,58.07
2023-02-21T19:24:08.398Z,58.37
2023-02-21T19:26:46.452Z,58.56
2023-02-21T19:29:42.091Z,58.86
2023-02-21T19:32:36.648Z,58.62
2023-02-21T19:35:22.939Z,58.61
2023-02-21T19:38:09.829Z,58.88
2023-02-21T19:40:55.439Z,59.08
2023-02-21T19:43:43.178Z,59.22
2023-02-21T19:46:31.122Z,59.64
2023-02-21T19:49:19.903Z,59.91
2023-02-21T19:52:05.931Z,60.12
2023-02-21T19:54:58.844Z,60.28
2023-02-21T19:57:51.708Z,60.39
2023-02-21T20:00:44.549Z,60.57
2023-02-21T20:03:25.257Z,60.71
2023-02-21T20:06:16.648Z,60.97
2023-02-21T20:08:49.212Z,61.15
2023-02-21T20:11:27.798Z,61.06
2023-02-21T20:14:20.677Z,61.22
2023-02-21T20:17:15.177Z,61.37
2023-02-21T20:20:11.967Z,61.84
2023-02-21T20:23:04.752Z,61.87
2023-02-21T20:25:57.536Z,62.11
2023-02-21T20:28:51.945Z,62.41
2023-02-21T20:31:45.343Z,62.38
2023-02-21T20:34:40.855Z,62.47
2023-02-21T20:37:33.641Z,62.74
2023-02-21T20:40:27.268Z,63.03
2023-02-21T20:43:13.437Z,63.24
2023-02-21T20:46:05.440Z,63.37
2023-02-21T20:48:59.098Z,63.49
2023-02-21T20:51:46.322Z,63.52
2023-02-21T20:54:39.756Z,63.74
2023-02-21T20:57:31.308Z,63.73
2023-02-21T21:00:24.649Z,63.49
2023-02-21T21:03:18.194Z,63.44
2023-02-21T21:06:14.141Z,63.83
2023-02-21T21:09:07.726Z,64.10
2023-02-21T21:11:53.183Z,64.43
2023-02-21T21:14:49.277Z,64.82
2023-02-21T21:17:33.341Z,65.10
2023-02-21T21:20:19.071Z,65.59
2023-02-21T21:23:11.221Z,66.10
2023-02-21T21:25:56.959Z,66.49
2023-02-21T21:28:51.187Z,66.92
2023-02-21T21:31:32.782Z,67.08
2023-02-21T21:34:25.929Z,67.39
2023-02-21T21:37:14.477Z,67.66
2023-02-21T21:40:16.504Z,67.76
2023-02-21T21:43:12.364Z,68.10
2023-02-21T21:45:58.994Z,68.26
2023-02-21T21:48:53.129Z,68.45
2023-02-21T21:51:48.219Z,68.87
2023-02-21T21:54:45.594Z,68.88
2023-02-21T21:57:30.678Z,69.11
2023-02-21T22:00:28.847Z,69.23
2023-02-21T22:03:20.142Z,69.26
2023-02-21T22:06:13.199Z,69.56
2023-02-21T22:09:07.772Z,69.71
2023-02-21T22:12:02.925Z,70.08
2023-02-21T22:14:50.549Z,70.42
2023-02-21T22:17:46.109Z,70.61
2023-02-21T22:20:39.524Z,70.63
2023-02-21T22:23:32.914Z,70.89
2023-02-21T22:26:27.274Z,70.70
2023-02-21T22:29:20.236Z,70.70
2023-02-21T22:32:16.312Z,70.70
2023-02-21T22:35:18.150Z,70.70
2023-02-21T22:38:14.685Z,70.79
2023-02-21T22:41:01.344Z,70.73
2023-02-21T22:43:42.669Z,70.68
2023-02-21T22:46:43.638Z,70.62
2023-02-21T22:49:36.706Z,70.41
2023-02-21T22:52:30.777Z,70.36
2023-02-21T22:55:27.880Z,69.95
2023-02-21T22:58:21.354Z,68.87
2023-02-21T23:01:17.929Z,67.04
2023-02-21T23:04:16.135Z,65.64
2023-02-21T23:07:02.978Z,63.72
2023-02-21T23:09:55.856Z,63.18
2023-02-21T23:12:53.124Z,62.16
2023-02-21T23:15:46.826Z,62.57
2023-02-21T23:18:41.245Z,62.65
2023-02-21T23:21:34.082Z,62.35
2023-02-21T23:24:22.669Z,62.63
2023-02-21T23:27:15.441Z,62.89
2023-02-21T23:30:10.303Z,63.16
2023-02-21T23:33:02.144Z,63.43
2023-02-21T23:35:57.348Z,63.70
2023-02-21T23:38:48.658Z,64.25
2023-02-21T23:41:48.987Z,65.08
2023-02-21T23:44:41.812Z,65.45
2023-02-21T23:47:34.476Z,66.05
2023-02-21T23:50:30.676Z,66.79
2023-02-21T23:53:26.428Z,67.13
2023-02-21T23:56:19.474Z,67.69
2023-02-21T23:59:06.253Z,68.12
